Tai Shan, China
Current Conditions -  °F | °C
As of 11:00 AM on Tuesday 23 Dec 2014 (Local Time) from ZSJN Reporting Station
Clear Clear  
Wind Chill: 48°   Ceiling: Unl
Heat Index: 48°   Visibility: 4mi
Dew Point: 14°   Wind: 2mph
Humidity: 25%   Direction: NA
Pressure: 30.15"   Gusts: NA
Location:  36.25°N, 117.1°E
Report Text: ZSJN 230300Z VRB01MPS 6000 NSC 09/M10 Q1021 NOSIG
Loading
Personal Weather Stations






























Interactive Weather Map New forecast layout! Learn more

10-Day Weather Forecast

Advertisements
Track Severe Weather on mobile